sensor_id;sensor_type;location;lat;lon;timestamp;P1;durP1;ratioP1;P2;durP2;ratioP2
61938;SDS011;47897;50.322;18.892;2022-08-19T00:00:31;36.80;;;24.70;;
61938;SDS011;47897;50.322;18.892;2022-08-19T00:02:58;38.40;;;25.40;;
61938;SDS011;47897;50.322;18.892;2022-08-19T00:05:25;39.00;;;26.30;;
61938;SDS011;47897;50.322;18.892;2022-08-19T00:07:52;39.60;;;25.20;;
61938;SDS011;47897;50.322;18.892;2022-08-19T00:10:19;38.10;;;24.30;;
61938;SDS011;47897;50.322;18.892;2022-08-19T00:12:47;40.50;;;26.10;;
61938;SDS011;47897;50.322;18.892;2022-08-19T00:15:15;38.50;;;26.40;;
61938;SDS011;47897;50.322;18.892;2022-08-19T00:20:19;35.80;;;24.10;;
61938;SDS011;47897;50.322;18.892;2022-08-19T00:22:47;36.50;;;24.70;;
61938;SDS011;47897;50.322;18.892;2022-08-19T00:25:15;38.70;;;26.00;;
61938;SDS011;47897;50.322;18.892;2022-08-19T00:27:42;40.40;;;25.20;;
61938;SDS011;47897;50.322;18.892;2022-08-19T00:30:10;37.20;;;25.10;;
61938;SDS011;47897;50.322;18.892;2022-08-19T00:32:37;38.20;;;25.70;;
61938;SDS011;47897;50.322;18.892;2022-08-19T00:35:05;34.80;;;25.60;;
61938;SDS011;47897;50.322;18.892;2022-08-19T00:37:33;39.80;;;25.50;;
61938;SDS011;47897;50.322;18.892;2022-08-19T00:40:02;40.60;;;25.70;;
61938;SDS011;47897;50.322;18.892;2022-08-19T00:42:31;39.70;;;26.30;;
61938;SDS011;47897;50.322;18.892;2022-08-19T00:44:59;36.70;;;25.20;;
61938;SDS011;47897;50.322;18.892;2022-08-19T00:47:26;37.70;;;25.70;;
61938;SDS011;47897;50.322;18.892;2022-08-19T00:49:54;38.60;;;25.30;;
61938;SDS011;47897;50.322;18.892;2022-08-19T00:52:26;42.20;;;26.00;;
61938;SDS011;47897;50.322;18.892;2022-08-19T00:54:57;39.80;;;26.40;;
61938;SDS011;47897;50.322;18.892;2022-08-19T00:57:45;39.50;;;26.60;;
61938;SDS011;47897;50.322;18.892;2022-08-19T01:00:24;39.50;;;26.20;;
61938;SDS011;47897;50.322;18.892;2022-08-19T01:02:52;44.00;;;26.60;;
61938;SDS011;47897;50.322;18.892;2022-08-19T01:05:21;40.10;;;26.00;;
61938;SDS011;47897;50.322;18.892;2022-08-19T01:07:54;40.70;;;26.00;;
61938;SDS011;47897;50.322;18.892;2022-08-19T01:10:25;37.30;;;27.00;;
61938;SDS011;47897;50.322;18.892;2022-08-19T01:12:54;36.60;;;26.10;;
61938;SDS011;47897;50.322;18.892;2022-08-19T01:15:24;42.30;;;26.50;;
61938;SDS011;47897;50.322;18.892;2022-08-19T01:17:55;46.40;;;27.00;;
61938;SDS011;47897;50.322;18.892;2022-08-19T01:20:25;40.90;;;26.30;;
61938;SDS011;47897;50.322;18.892;2022-08-19T01:22:54;42.80;;;27.60;;
61938;SDS011;47897;50.322;18.892;2022-08-19T01:28:21;42.70;;;28.20;;
61938;SDS011;47897;50.322;18.892;2022-08-19T01:30:52;44.10;;;27.90;;
61938;SDS011;47897;50.322;18.892;2022-08-19T01:33:20;39.80;;;27.10;;
61938;SDS011;47897;50.322;18.892;2022-08-19T01:35:48;44.00;;;27.90;;
61938;SDS011;47897;50.322;18.892;2022-08-19T01:38:21;41.30;;;27.10;;
61938;SDS011;47897;50.322;18.892;2022-08-19T01:40:50;37.40;;;25.90;;
61938;SDS011;47897;50.322;18.892;2022-08-19T01:43:17;47.40;;;29.10;;
61938;SDS011;47897;50.322;18.892;2022-08-19T01:45:45;43.30;;;28.80;;
61938;SDS011;47897;50.322;18.892;2022-08-19T01:48:13;45.60;;;28.90;;
61938;SDS011;47897;50.322;18.892;2022-08-19T01:50:40;43.70;;;28.70;;
61938;SDS011;47897;50.322;18.892;2022-08-19T01:53:09;43.00;;;28.80;;
61938;SDS011;47897;50.322;18.892;2022-08-19T01:55:38;48.40;;;29.30;;
61938;SDS011;47897;50.322;18.892;2022-08-19T01:58:51;50.50;;;29.10;;
61938;SDS011;47897;50.322;18.892;2022-08-19T02:01:12;41.80;;;28.00;;
61938;SDS011;47897;50.322;18.892;2022-08-19T02:03:40;49.10;;;30.30;;
61938;SDS011;47897;50.322;18.892;2022-08-19T02:06:07;44.40;;;28.50;;
61938;SDS011;47897;50.322;18.892;2022-08-19T02:08:35;48.60;;;30.00;;
61938;SDS011;47897;50.322;18.892;2022-08-19T02:11:04;47.70;;;30.10;;
61938;SDS011;47897;50.322;18.892;2022-08-19T02:13:32;48.00;;;28.80;;
61938;SDS011;47897;50.322;18.892;2022-08-19T02:16:00;46.80;;;28.80;;
61938;SDS011;47897;50.322;18.892;2022-08-19T02:18:28;46.60;;;30.90;;
61938;SDS011;47897;50.322;18.892;2022-08-19T02:20:54;45.40;;;29.50;;
61938;SDS011;47897;50.322;18.892;2022-08-19T02:23:21;39.90;;;27.70;;
61938;SDS011;47897;50.322;18.892;2022-08-19T02:25:48;44.60;;;29.10;;
61938;SDS011;47897;50.322;18.892;2022-08-19T02:28:15;46.90;;;29.60;;
61938;SDS011;47897;50.322;18.892;2022-08-19T02:30:42;45.60;;;29.40;;
61938;SDS011;47897;50.322;18.892;2022-08-19T02:33:09;44.20;;;30.00;;
61938;SDS011;47897;50.322;18.892;2022-08-19T02:35:36;45.40;;;29.30;;
61938;SDS011;47897;50.322;18.892;2022-08-19T02:38:03;44.30;;;28.00;;
61938;SDS011;47897;50.322;18.892;2022-08-19T02:40:50;44.80;;;28.10;;
61938;SDS011;47897;50.322;18.892;2022-08-19T02:43:22;46.20;;;30.50;;
61938;SDS011;47897;50.322;18.892;2022-08-19T02:45:50;44.80;;;28.50;;
61938;SDS011;47897;50.322;18.892;2022-08-19T02:48:21;43.40;;;28.70;;
61938;SDS011;47897;50.322;18.892;2022-08-19T02:50:50;44.90;;;28.50;;
61938;SDS011;47897;50.322;18.892;2022-08-19T02:53:22;46.30;;;28.70;;
61938;SDS011;47897;50.322;18.892;2022-08-19T02:55:50;46.40;;;29.90;;
61938;SDS011;47897;50.322;18.892;2022-08-19T02:58:18;46.90;;;29.60;;
61938;SDS011;47897;50.322;18.892;2022-08-19T03:00:46;46.00;;;30.20;;
61938;SDS011;47897;50.322;18.892;2022-08-19T03:03:16;46.40;;;28.70;;
61938;SDS011;47897;50.322;18.892;2022-08-19T03:05:45;51.50;;;31.30;;
61938;SDS011;47897;50.322;18.892;2022-08-19T03:08:12;51.40;;;30.00;;
61938;SDS011;47897;50.322;18.892;2022-08-19T03:10:44;48.40;;;29.70;;
61938;SDS011;47897;50.322;18.892;2022-08-19T03:13:13;47.70;;;29.90;;
61938;SDS011;47897;50.322;18.892;2022-08-19T03:15:44;43.50;;;29.20;;
61938;SDS011;47897;50.322;18.892;2022-08-19T03:18:13;43.50;;;29.20;;
61938;SDS011;47897;50.322;18.892;2022-08-19T03:20:45;44.00;;;28.80;;
61938;SDS011;47897;50.322;18.892;2022-08-19T03:23:14;55.50;;;30.50;;
61938;SDS011;47897;50.322;18.892;2022-08-19T03:25:44;43.50;;;28.80;;
61938;SDS011;47897;50.322;18.892;2022-08-19T03:28:14;49.30;;;29.80;;
61938;SDS011;47897;50.322;18.892;2022-08-19T03:30:42;49.80;;;31.60;;
61938;SDS011;47897;50.322;18.892;2022-08-19T03:36:09;43.90;;;28.80;;
61938;SDS011;47897;50.322;18.892;2022-08-19T03:38:43;46.20;;;28.80;;
61938;SDS011;47897;50.322;18.892;2022-08-19T03:41:16;45.00;;;28.50;;
61938;SDS011;47897;50.322;18.892;2022-08-19T03:43:53;47.10;;;30.50;;
61938;SDS011;47897;50.322;18.892;2022-08-19T03:46:22;48.40;;;29.70;;
61938;SDS011;47897;50.322;18.892;2022-08-19T03:48:52;47.10;;;31.30;;
61938;SDS011;47897;50.322;18.892;2022-08-19T03:51:22;47.50;;;29.80;;
61938;SDS011;47897;50.322;18.892;2022-08-19T03:53:52;55.90;;;32.00;;
61938;SDS011;47897;50.322;18.892;2022-08-19T03:56:20;46.00;;;29.80;;
61938;SDS011;47897;50.322;18.892;2022-08-19T03:58:48;48.30;;;30.20;;
61938;SDS011;47897;50.322;18.892;2022-08-19T04:01:16;44.70;;;29.40;;
61938;SDS011;47897;50.322;18.892;2022-08-19T04:03:46;47.50;;;30.20;;
61938;SDS011;47897;50.322;18.892;2022-08-19T04:06:14;47.60;;;30.10;;
61938;SDS011;47897;50.322;18.892;2022-08-19T04:08:42;50.40;;;31.10;;
61938;SDS011;47897;50.322;18.892;2022-08-19T04:11:13;46.70;;;30.20;;
61938;SDS011;47897;50.322;18.892;2022-08-19T04:13:42;49.30;;;30.20;;
61938;SDS011;47897;50.322;18.892;2022-08-19T04:16:10;47.20;;;29.90;;
61938;SDS011;47897;50.322;18.892;2022-08-19T04:18:38;45.40;;;29.30;;
61938;SDS011;47897;50.322;18.892;2022-08-19T04:21:07;53.30;;;30.90;;
61938;SDS011;47897;50.322;18.892;2022-08-19T04:23:34;47.90;;;31.50;;
61938;SDS011;47897;50.322;18.892;2022-08-19T04:26:04;48.80;;;30.30;;
61938;SDS011;47897;50.322;18.892;2022-08-19T04:28:31;52.40;;;31.20;;
61938;SDS011;47897;50.322;18.892;2022-08-19T04:30:58;50.80;;;31.50;;
61938;SDS011;47897;50.322;18.892;2022-08-19T04:33:25;51.00;;;31.00;;
61938;SDS011;47897;50.322;18.892;2022-08-19T04:35:52;46.30;;;30.20;;
61938;SDS011;47897;50.322;18.892;2022-08-19T04:38:19;50.00;;;32.40;;
61938;SDS011;47897;50.322;18.892;2022-08-19T04:40:51;52.30;;;32.00;;
61938;SDS011;47897;50.322;18.892;2022-08-19T04:43:37;46.10;;;29.70;;
61938;SDS011;47897;50.322;18.892;2022-08-19T04:46:08;48.70;;;30.70;;
61938;SDS011;47897;50.322;18.892;2022-08-19T04:48:37;47.80;;;29.30;;
61938;SDS011;47897;50.322;18.892;2022-08-19T04:51:06;48.70;;;30.40;;
61938;SDS011;47897;50.322;18.892;2022-08-19T04:53:35;45.40;;;28.70;;
61938;SDS011;47897;50.322;18.892;2022-08-19T04:56:06;43.10;;;28.60;;
61938;SDS011;47897;50.322;18.892;2022-08-19T04:58:40;48.70;;;28.00;;
61938;SDS011;47897;50.322;18.892;2022-08-19T05:01:09;47.50;;;30.10;;
61938;SDS011;47897;50.322;18.892;2022-08-19T05:03:44;49.00;;;29.20;;
61938;SDS011;47897;50.322;18.892;2022-08-19T05:06:11;50.70;;;28.90;;
61938;SDS011;47897;50.322;18.892;2022-08-19T05:08:40;47.50;;;28.00;;
61938;SDS011;47897;50.322;18.892;2022-08-19T05:11:10;49.70;;;30.50;;
61938;SDS011;47897;50.322;18.892;2022-08-19T05:13:41;43.30;;;28.30;;
61938;SDS011;47897;50.322;18.892;2022-08-19T05:16:11;42.00;;;27.70;;
61938;SDS011;47897;50.322;18.892;2022-08-19T05:18:39;43.10;;;28.80;;
61938;SDS011;47897;50.322;18.892;2022-08-19T05:21:25;48.90;;;28.00;;
61938;SDS011;47897;50.322;18.892;2022-08-19T05:24:12;46.50;;;28.10;;
61938;SDS011;47897;50.322;18.892;2022-08-19T05:26:45;41.40;;;27.80;;
61938;SDS011;47897;50.322;18.892;2022-08-19T05:29:14;39.50;;;26.40;;
61938;SDS011;47897;50.322;18.892;2022-08-19T05:31:45;44.50;;;27.60;;
61938;SDS011;47897;50.322;18.892;2022-08-19T05:34:17;45.40;;;27.80;;
61938;SDS011;47897;50.322;18.892;2022-08-19T05:36:46;42.60;;;27.70;;
61938;SDS011;47897;50.322;18.892;2022-08-19T05:39:15;44.50;;;28.60;;
61938;SDS011;47897;50.322;18.892;2022-08-19T05:41:48;45.50;;;28.30;;
61938;SDS011;47897;50.322;18.892;2022-08-19T05:44:17;43.30;;;27.60;;
61938;SDS011;47897;50.322;18.892;2022-08-19T05:46:44;44.80;;;28.90;;
61938;SDS011;47897;50.322;18.892;2022-08-19T05:49:13;40.80;;;28.00;;
61938;SDS011;47897;50.322;18.892;2022-08-19T05:51:42;44.00;;;28.00;;
61938;SDS011;47897;50.322;18.892;2022-08-19T05:54:09;48.40;;;27.80;;
61938;SDS011;47897;50.322;18.892;2022-08-19T05:56:40;48.10;;;29.60;;
61938;SDS011;47897;50.322;18.892;2022-08-19T05:59:09;42.20;;;26.50;;
61938;SDS011;47897;50.322;18.892;2022-08-19T06:01:38;40.20;;;27.50;;
61938;SDS011;47897;50.322;18.892;2022-08-19T06:04:06;41.50;;;27.30;;
61938;SDS011;47897;50.322;18.892;2022-08-19T06:06:34;45.60;;;27.00;;
61938;SDS011;47897;50.322;18.892;2022-08-19T06:09:06;41.60;;;27.80;;
61938;SDS011;47897;50.322;18.892;2022-08-19T06:14:11;43.40;;;27.70;;
61938;SDS011;47897;50.322;18.892;2022-08-19T06:16:41;41.40;;;26.50;;
61938;SDS011;47897;50.322;18.892;2022-08-19T06:19:10;41.60;;;26.80;;
61938;SDS011;47897;50.322;18.892;2022-08-19T06:21:40;48.90;;;28.60;;
61938;SDS011;47897;50.322;18.892;2022-08-19T06:24:10;42.40;;;27.30;;
61938;SDS011;47897;50.322;18.892;2022-08-19T06:26:40;41.30;;;27.40;;
61938;SDS011;47897;50.322;18.892;2022-08-19T06:29:10;39.80;;;27.50;;
61938;SDS011;47897;50.322;18.892;2022-08-19T06:31:43;41.00;;;27.20;;
61938;SDS011;47897;50.322;18.892;2022-08-19T06:34:12;42.60;;;27.40;;
61938;SDS011;47897;50.322;18.892;2022-08-19T06:36:41;48.90;;;26.80;;
61938;SDS011;47897;50.322;18.892;2022-08-19T06:39:11;45.20;;;27.60;;
61938;SDS011;47897;50.322;18.892;2022-08-19T06:41:41;47.80;;;28.80;;
61938;SDS011;47897;50.322;18.892;2022-08-19T06:44:11;42.70;;;27.50;;
61938;SDS011;47897;50.322;18.892;2022-08-19T06:46:39;39.20;;;25.70;;
61938;SDS011;47897;50.322;18.892;2022-08-19T06:49:07;43.90;;;26.80;;
61938;SDS011;47897;50.322;18.892;2022-08-19T06:51:41;40.50;;;27.30;;
61938;SDS011;47897;50.322;18.892;2022-08-19T06:54:10;41.20;;;26.30;;
61938;SDS011;47897;50.322;18.892;2022-08-19T06:56:37;37.60;;;26.40;;
61938;SDS011;47897;50.322;18.892;2022-08-19T06:59:06;48.50;;;28.40;;
61938;SDS011;47897;50.322;18.892;2022-08-19T07:01:36;46.50;;;27.10;;
61938;SDS011;47897;50.322;18.892;2022-08-19T07:04:06;37.50;;;26.10;;
61938;SDS011;47897;50.322;18.892;2022-08-19T07:06:34;39.20;;;26.20;;
61938;SDS011;47897;50.322;18.892;2022-08-19T07:09:03;43.80;;;26.90;;
61938;SDS011;47897;50.322;18.892;2022-08-19T07:11:34;45.20;;;26.20;;
61938;SDS011;47897;50.322;18.892;2022-08-19T07:14:01;43.20;;;26.90;;
61938;SDS011;47897;50.322;18.892;2022-08-19T07:16:29;39.90;;;26.80;;
61938;SDS011;47897;50.322;18.892;2022-08-19T07:18:56;40.90;;;25.70;;
61938;SDS011;47897;50.322;18.892;2022-08-19T07:21:25;42.70;;;27.80;;
61938;SDS011;47897;50.322;18.892;2022-08-19T07:23:55;37.10;;;26.90;;
61938;SDS011;47897;50.322;18.892;2022-08-19T07:26:25;43.80;;;26.40;;
61938;SDS011;47897;50.322;18.892;2022-08-19T07:28:55;37.70;;;25.90;;
61938;SDS011;47897;50.322;18.892;2022-08-19T07:31:25;40.90;;;26.60;;
61938;SDS011;47897;50.322;18.892;2022-08-19T07:33:55;45.20;;;27.20;;
61938;SDS011;47897;50.322;18.892;2022-08-19T07:36:26;39.70;;;25.50;;
61938;SDS011;47897;50.322;18.892;2022-08-19T07:38:59;39.00;;;27.00;;
61938;SDS011;47897;50.322;18.892;2022-08-19T07:41:29;42.40;;;26.40;;
61938;SDS011;47897;50.322;18.892;2022-08-19T07:43:58;43.20;;;27.30;;
61938;SDS011;47897;50.322;18.892;2022-08-19T07:46:30;39.10;;;26.70;;
61938;SDS011;47897;50.322;18.892;2022-08-19T07:48:58;39.60;;;28.00;;
61938;SDS011;47897;50.322;18.892;2022-08-19T07:51:27;45.30;;;28.00;;
61938;SDS011;47897;50.322;18.892;2022-08-19T07:53:54;43.50;;;28.30;;
61938;SDS011;47897;50.322;18.892;2022-08-19T07:56:22;44.30;;;28.20;;
61938;SDS011;47897;50.322;18.892;2022-08-19T07:58:50;39.50;;;26.80;;
61938;SDS011;47897;50.322;18.892;2022-08-19T08:01:22;45.90;;;27.30;;
61938;SDS011;47897;50.322;18.892;2022-08-19T08:03:52;39.70;;;25.90;;
61938;SDS011;47897;50.322;18.892;2022-08-19T08:06:38;54.20;;;28.60;;
61938;SDS011;47897;50.322;18.892;2022-08-19T08:09:28;43.00;;;27.60;;
61938;SDS011;47897;50.322;18.892;2022-08-19T08:11:59;41.70;;;26.50;;
61938;SDS011;47897;50.322;18.892;2022-08-19T08:14:31;40.00;;;26.50;;
61938;SDS011;47897;50.322;18.892;2022-08-19T08:17:02;43.70;;;27.40;;
61938;SDS011;47897;50.322;18.892;2022-08-19T08:19:31;45.90;;;29.00;;
61938;SDS011;47897;50.322;18.892;2022-08-19T08:21:59;46.00;;;28.10;;
61938;SDS011;47897;50.322;18.892;2022-08-19T08:24:28;41.70;;;27.30;;
61938;SDS011;47897;50.322;18.892;2022-08-19T08:27:00;40.40;;;26.20;;
61938;SDS011;47897;50.322;18.892;2022-08-19T08:29:29;42.80;;;27.90;;
61938;SDS011;47897;50.322;18.892;2022-08-19T08:31:57;42.40;;;26.20;;
61938;SDS011;47897;50.322;18.892;2022-08-19T08:34:26;38.30;;;26.30;;
61938;SDS011;47897;50.322;18.892;2022-08-19T08:36:53;39.30;;;26.50;;
61938;SDS011;47897;50.322;18.892;2022-08-19T08:39:20;37.30;;;25.50;;
61938;SDS011;47897;50.322;18.892;2022-08-19T08:44:28;36.60;;;24.80;;
61938;SDS011;47897;50.322;18.892;2022-08-19T08:47:04;36.00;;;25.20;;
61938;SDS011;47897;50.322;18.892;2022-08-19T08:52:50;45.30;;;24.60;;
61938;SDS011;47897;50.322;18.892;2022-08-19T08:55:23;36.10;;;24.10;;
61938;SDS011;47897;50.322;18.892;2022-08-19T08:57:55;37.20;;;24.90;;
61938;SDS011;47897;50.322;18.892;2022-08-19T09:00:46;36.60;;;24.30;;
61938;SDS011;47897;50.322;18.892;2022-08-19T09:03:21;35.40;;;23.40;;
61938;SDS011;47897;50.322;18.892;2022-08-19T09:06:01;32.40;;;23.30;;
61938;SDS011;47897;50.322;18.892;2022-08-19T09:08:49;33.50;;;22.50;;
61938;SDS011;47897;50.322;18.892;2022-08-19T09:14:49;32.60;;;23.40;;
61938;SDS011;47897;50.322;18.892;2022-08-19T09:17:10;34.20;;;24.90;;
61938;SDS011;47897;50.322;18.892;2022-08-19T09:19:51;39.20;;;23.60;;
61938;SDS011;47897;50.322;18.892;2022-08-19T09:22:19;32.80;;;23.70;;
61938;SDS011;47897;50.322;18.892;2022-08-19T09:24:50;37.50;;;23.70;;
61938;SDS011;47897;50.322;18.892;2022-08-19T09:27:22;40.40;;;23.80;;
61938;SDS011;47897;50.322;18.892;2022-08-19T09:29:51;43.30;;;24.40;;
61938;SDS011;47897;50.322;18.892;2022-08-19T09:32:20;34.70;;;24.10;;
61938;SDS011;47897;50.322;18.892;2022-08-19T09:34:48;32.90;;;23.30;;
61938;SDS011;47897;50.322;18.892;2022-08-19T09:37:15;34.20;;;23.60;;
61938;SDS011;47897;50.322;18.892;2022-08-19T09:39:42;40.50;;;24.40;;
61938;SDS011;47897;50.322;18.892;2022-08-19T09:42:10;36.60;;;22.70;;
61938;SDS011;47897;50.322;18.892;2022-08-19T09:44:40;35.00;;;24.10;;
61938;SDS011;47897;50.322;18.892;2022-08-19T09:47:11;32.30;;;24.90;;
61938;SDS011;47897;50.322;18.892;2022-08-19T09:49:40;37.00;;;24.80;;
61938;SDS011;47897;50.322;18.892;2022-08-19T09:52:10;35.70;;;23.80;;
61938;SDS011;47897;50.322;18.892;2022-08-19T09:54:38;32.50;;;23.10;;
61938;SDS011;47897;50.322;18.892;2022-08-19T09:57:05;36.60;;;23.80;;
61938;SDS011;47897;50.322;18.892;2022-08-19T09:59:33;36.90;;;22.70;;
61938;SDS011;47897;50.322;18.892;2022-08-19T10:02:05;30.00;;;20.90;;
61938;SDS011;47897;50.322;18.892;2022-08-19T10:04:32;29.90;;;22.70;;
61938;SDS011;47897;50.322;18.892;2022-08-19T10:07:18;32.70;;;22.90;;
61938;SDS011;47897;50.322;18.892;2022-08-19T10:09:45;32.50;;;21.60;;
61938;SDS011;47897;50.322;18.892;2022-08-19T10:12:12;31.60;;;22.10;;
61938;SDS011;47897;50.322;18.892;2022-08-19T10:14:41;31.00;;;22.80;;
61938;SDS011;47897;50.322;18.892;2022-08-19T10:17:08;33.30;;;22.80;;
61938;SDS011;47897;50.322;18.892;2022-08-19T10:19:35;36.40;;;24.70;;
61938;SDS011;47897;50.322;18.892;2022-08-19T10:22:03;32.10;;;23.50;;
61938;SDS011;47897;50.322;18.892;2022-08-19T10:24:31;31.60;;;22.40;;
61938;SDS011;47897;50.322;18.892;2022-08-19T10:26:59;34.70;;;23.30;;
61938;SDS011;47897;50.322;18.892;2022-08-19T10:29:29;25.90;;;22.10;;
61938;SDS011;47897;50.322;18.892;2022-08-19T10:31:58;35.20;;;22.80;;
61938;SDS011;47897;50.322;18.892;2022-08-19T10:34:31;32.90;;;24.10;;
61938;SDS011;47897;50.322;18.892;2022-08-19T10:36:58;30.30;;;23.00;;
61938;SDS011;47897;50.322;18.892;2022-08-19T10:39:27;33.60;;;22.10;;
61938;SDS011;47897;50.322;18.892;2022-08-19T10:41:57;30.60;;;22.10;;
61938;SDS011;47897;50.322;18.892;2022-08-19T10:44:24;31.90;;;23.70;;
61938;SDS011;47897;50.322;18.892;2022-08-19T10:46:52;30.60;;;22.30;;
61938;SDS011;47897;50.322;18.892;2022-08-19T10:49:19;27.70;;;22.10;;
61938;SDS011;47897;50.322;18.892;2022-08-19T10:51:46;29.60;;;21.10;;
61938;SDS011;47897;50.322;18.892;2022-08-19T10:54:32;32.50;;;21.40;;
61938;SDS011;47897;50.322;18.892;2022-08-19T10:57:18;28.40;;;21.30;;
61938;SDS011;47897;50.322;18.892;2022-08-19T10:59:44;26.00;;;20.50;;
61938;SDS011;47897;50.322;18.892;2022-08-19T11:02:11;25.40;;;19.90;;
61938;SDS011;47897;50.322;18.892;2022-08-19T11:04:40;26.90;;;19.20;;
61938;SDS011;47897;50.322;18.892;2022-08-19T11:07:07;27.90;;;18.60;;
61938;SDS011;47897;50.322;18.892;2022-08-19T11:09:39;34.40;;;18.90;;
61938;SDS011;47897;50.322;18.892;2022-08-19T11:12:08;26.50;;;19.20;;
61938;SDS011;47897;50.322;18.892;2022-08-19T11:14:36;26.60;;;18.50;;
61938;SDS011;47897;50.322;18.892;2022-08-19T11:17:04;26.60;;;19.70;;
61938;SDS011;47897;50.322;18.892;2022-08-19T11:19:32;30.40;;;19.10;;
61938;SDS011;47897;50.322;18.892;2022-08-19T11:22:00;28.20;;;20.20;;
61938;SDS011;47897;50.322;18.892;2022-08-19T11:24:30;26.40;;;19.70;;
61938;SDS011;47897;50.322;18.892;2022-08-19T11:27:00;27.00;;;19.40;;
61938;SDS011;47897;50.322;18.892;2022-08-19T11:29:33;29.30;;;19.70;;
61938;SDS011;47897;50.322;18.892;2022-08-19T11:32:10;27.60;;;19.90;;
61938;SDS011;47897;50.322;18.892;2022-08-19T11:34:37;28.80;;;19.80;;
61938;SDS011;47897;50.322;18.892;2022-08-19T11:37:04;28.90;;;20.50;;
61938;SDS011;47897;50.322;18.892;2022-08-19T11:39:32;26.50;;;21.70;;
61938;SDS011;47897;50.322;18.892;2022-08-19T11:42:02;28.00;;;20.50;;
61938;SDS011;47897;50.322;18.892;2022-08-19T11:44:50;23.80;;;18.50;;
61938;SDS011;47897;50.322;18.892;2022-08-19T11:47:17;23.60;;;17.60;;
61938;SDS011;47897;50.322;18.892;2022-08-19T11:49:45;25.80;;;16.90;;
61938;SDS011;47897;50.322;18.892;2022-08-19T11:52:13;24.30;;;17.80;;
61938;SDS011;47897;50.322;18.892;2022-08-19T11:54:40;21.90;;;17.20;;
61938;SDS011;47897;50.322;18.892;2022-08-19T11:57:07;23.90;;;18.40;;
61938;SDS011;47897;50.322;18.892;2022-08-19T11:59:34;27.20;;;17.30;;
61938;SDS011;47897;50.322;18.892;2022-08-19T12:02:01;23.90;;;16.90;;
61938;SDS011;47897;50.322;18.892;2022-08-19T12:04:28;23.00;;;17.40;;
61938;SDS011;47897;50.322;18.892;2022-08-19T12:06:55;24.20;;;18.20;;
61938;SDS011;47897;50.322;18.892;2022-08-19T12:09:22;23.90;;;18.00;;
61938;SDS011;47897;50.322;18.892;2022-08-19T12:11:49;21.60;;;16.00;;
61938;SDS011;47897;50.322;18.892;2022-08-19T12:14:17;21.90;;;17.10;;
61938;SDS011;47897;50.322;18.892;2022-08-19T12:16:45;21.50;;;16.90;;
61938;SDS011;47897;50.322;18.892;2022-08-19T12:19:13;26.10;;;15.70;;
61938;SDS011;47897;50.322;18.892;2022-08-19T12:21:40;26.20;;;16.40;;
61938;SDS011;47897;50.322;18.892;2022-08-19T12:24:07;21.80;;;15.70;;
61938;SDS011;47897;50.322;18.892;2022-08-19T12:26:34;21.20;;;16.00;;
61938;SDS011;47897;50.322;18.892;2022-08-19T12:29:02;29.20;;;17.30;;
61938;SDS011;47897;50.322;18.892;2022-08-19T12:31:30;20.80;;;16.30;;
61938;SDS011;47897;50.322;18.892;2022-08-19T12:33:58;20.90;;;16.50;;
61938;SDS011;47897;50.322;18.892;2022-08-19T12:38:57;21.50;;;17.20;;
61938;SDS011;47897;50.322;18.892;2022-08-19T12:41:25;23.30;;;16.00;;
61938;SDS011;47897;50.322;18.892;2022-08-19T12:43:52;25.20;;;17.80;;
61938;SDS011;47897;50.322;18.892;2022-08-19T12:46:19;23.50;;;16.30;;
61938;SDS011;47897;50.322;18.892;2022-08-19T12:48:47;24.50;;;16.70;;
61938;SDS011;47897;50.322;18.892;2022-08-19T12:51:15;21.50;;;15.60;;
61938;SDS011;47897;50.322;18.892;2022-08-19T12:53:46;21.70;;;15.50;;
61938;SDS011;47897;50.322;18.892;2022-08-19T12:56:14;21.70;;;16.70;;
61938;SDS011;47897;50.322;18.892;2022-08-19T12:58:41;22.30;;;16.50;;
61938;SDS011;47897;50.322;18.892;2022-08-19T13:01:14;22.90;;;17.10;;
61938;SDS011;47897;50.322;18.892;2022-08-19T13:03:44;24.10;;;16.60;;
61938;SDS011;47897;50.322;18.892;2022-08-19T13:06:12;24.30;;;16.80;;
61938;SDS011;47897;50.322;18.892;2022-08-19T13:08:40;26.00;;;16.60;;
61938;SDS011;47897;50.322;18.892;2022-08-19T13:11:16;21.80;;;16.50;;
61938;SDS011;47897;50.322;18.892;2022-08-19T13:13:46;22.80;;;15.70;;
61938;SDS011;47897;50.322;18.892;2022-08-19T13:16:16;24.60;;;15.20;;
61938;SDS011;47897;50.322;18.892;2022-08-19T13:18:45;20.50;;;15.60;;
61938;SDS011;47897;50.322;18.892;2022-08-19T13:21:23;24.00;;;16.10;;
61938;SDS011;47897;50.322;18.892;2022-08-19T13:23:53;20.10;;;14.70;;
61938;SDS011;47897;50.322;18.892;2022-08-19T13:26:20;21.50;;;15.80;;
61938;SDS011;47897;50.322;18.892;2022-08-19T13:28:48;18.20;;;14.40;;
61938;SDS011;47897;50.322;18.892;2022-08-19T13:31:34;23.00;;;16.80;;
61938;SDS011;47897;50.322;18.892;2022-08-19T13:34:29;25.70;;;16.10;;
61938;SDS011;47897;50.322;18.892;2022-08-19T13:36:59;20.00;;;15.10;;
61938;SDS011;47897;50.322;18.892;2022-08-19T13:39:29;24.00;;;14.70;;
61938;SDS011;47897;50.322;18.892;2022-08-19T13:42:00;20.80;;;15.40;;
61938;SDS011;47897;50.322;18.892;2022-08-19T13:44:28;27.60;;;15.30;;
61938;SDS011;47897;50.322;18.892;2022-08-19T13:47:05;24.40;;;15.40;;
61938;SDS011;47897;50.322;18.892;2022-08-19T13:49:34;23.30;;;14.60;;
61938;SDS011;47897;50.322;18.892;2022-08-19T13:52:03;20.30;;;14.60;;
61938;SDS011;47897;50.322;18.892;2022-08-19T13:54:31;19.20;;;13.50;;
61938;SDS011;47897;50.322;18.892;2022-08-19T13:56:58;22.50;;;13.70;;
61938;SDS011;47897;50.322;18.892;2022-08-19T13:59:25;23.60;;;14.00;;
61938;SDS011;47897;50.322;18.892;2022-08-19T14:01:52;23.30;;;12.80;;
61938;SDS011;47897;50.322;18.892;2022-08-19T14:04:23;23.90;;;12.80;;
61938;SDS011;47897;50.322;18.892;2022-08-19T14:06:50;22.60;;;12.50;;
61938;SDS011;47897;50.322;18.892;2022-08-19T14:09:17;23.30;;;12.90;;
61938;SDS011;47897;50.322;18.892;2022-08-19T14:11:44;23.30;;;13.20;;
61938;SDS011;47897;50.322;18.892;2022-08-19T14:14:12;22.10;;;14.00;;
61938;SDS011;47897;50.322;18.892;2022-08-19T14:16:39;22.80;;;13.10;;
61938;SDS011;47897;50.322;18.892;2022-08-19T14:19:06;24.70;;;12.40;;
61938;SDS011;47897;50.322;18.892;2022-08-19T14:21:34;22.30;;;13.70;;
61938;SDS011;47897;50.322;18.892;2022-08-19T14:24:02;21.50;;;13.70;;
61938;SDS011;47897;50.322;18.892;2022-08-19T14:26:29;23.60;;;13.70;;
61938;SDS011;47897;50.322;18.892;2022-08-19T14:28:56;25.30;;;14.30;;
61938;SDS011;47897;50.322;18.892;2022-08-19T14:31:24;23.20;;;14.50;;
61938;SDS011;47897;50.322;18.892;2022-08-19T14:33:52;25.70;;;15.10;;
61938;SDS011;47897;50.322;18.892;2022-08-19T14:36:20;29.70;;;15.00;;
61938;SDS011;47897;50.322;18.892;2022-08-19T14:38:48;22.80;;;14.70;;
61938;SDS011;47897;50.322;18.892;2022-08-19T14:41:17;21.50;;;15.00;;
61938;SDS011;47897;50.322;18.892;2022-08-19T14:43:47;24.00;;;15.70;;
61938;SDS011;47897;50.322;18.892;2022-08-19T14:48:47;24.30;;;15.10;;